sensor_id;sensor_type;location;lat;lon;timestamp;P1;durP1;ratioP1;P2;durP2;ratioP2
46815;SDS011;32787;53.316;8.670;2023-05-10T00:01:55;21.65;;;15.55;;
46815;SDS011;32787;53.316;8.670;2023-05-10T00:04:20;22.48;;;16.60;;
46815;SDS011;32787;53.316;8.670;2023-05-10T00:06:46;23.45;;;17.10;;
46815;SDS011;32787;53.316;8.670;2023-05-10T00:09:12;26.58;;;16.90;;
46815;SDS011;32787;53.316;8.670;2023-05-10T00:11:37;22.38;;;15.38;;
46815;SDS011;32787;53.316;8.670;2023-05-10T00:14:03;20.83;;;15.32;;
46815;SDS011;32787;53.316;8.670;2023-05-10T00:16:28;23.50;;;16.80;;
46815;SDS011;32787;53.316;8.670;2023-05-10T00:18:54;22.42;;;16.58;;
46815;SDS011;32787;53.316;8.670;2023-05-10T00:21:20;23.67;;;16.27;;
46815;SDS011;32787;53.316;8.670;2023-05-10T00:23:45;24.40;;;17.17;;
46815;SDS011;32787;53.316;8.670;2023-05-10T00:26:11;24.08;;;17.48;;
46815;SDS011;32787;53.316;8.670;2023-05-10T00:28:36;23.55;;;16.83;;
46815;SDS011;32787;53.316;8.670;2023-05-10T00:31:02;25.90;;;17.45;;
46815;SDS011;32787;53.316;8.670;2023-05-10T00:33:28;23.40;;;17.35;;
46815;SDS011;32787;53.316;8.670;2023-05-10T00:35:53;23.60;;;17.65;;
46815;SDS011;32787;53.316;8.670;2023-05-10T00:38:19;23.63;;;17.60;;
46815;SDS011;32787;53.316;8.670;2023-05-10T00:40:44;24.58;;;17.02;;
46815;SDS011;32787;53.316;8.670;2023-05-10T00:43:10;21.52;;;16.52;;
46815;SDS011;32787;53.316;8.670;2023-05-10T00:45:36;22.83;;;16.42;;
46815;SDS011;32787;53.316;8.670;2023-05-10T00:48:02;24.23;;;16.83;;
46815;SDS011;32787;53.316;8.670;2023-05-10T00:50:29;21.05;;;15.73;;
46815;SDS011;32787;53.316;8.670;2023-05-10T00:52:56;22.83;;;14.90;;
46815;SDS011;32787;53.316;8.670;2023-05-10T00:55:22;19.98;;;14.45;;
46815;SDS011;32787;53.316;8.670;2023-05-10T00:57:48;15.27;;;11.75;;
46815;SDS011;32787;53.316;8.670;2023-05-10T01:00:14;18.85;;;12.80;;
46815;SDS011;32787;53.316;8.670;2023-05-10T01:02:44;17.73;;;10.93;;
46815;SDS011;32787;53.316;8.670;2023-05-10T01:05:11;14.75;;;11.27;;
46815;SDS011;32787;53.316;8.670;2023-05-10T01:07:37;14.48;;;10.23;;
46815;SDS011;32787;53.316;8.670;2023-05-10T01:10:03;16.70;;;10.73;;
46815;SDS011;32787;53.316;8.670;2023-05-10T01:12:29;17.05;;;9.80;;
46815;SDS011;32787;53.316;8.670;2023-05-10T01:14:55;16.10;;;10.10;;
46815;SDS011;32787;53.316;8.670;2023-05-10T01:17:22;14.32;;;10.88;;
46815;SDS011;32787;53.316;8.670;2023-05-10T01:19:48;13.57;;;10.05;;
46815;SDS011;32787;53.316;8.670;2023-05-10T01:30:22;16.08;;;10.73;;
46815;SDS011;32787;53.316;8.670;2023-05-10T01:32:56;16.58;;;10.68;;
46815;SDS011;32787;53.316;8.670;2023-05-10T01:43:45;13.85;;;10.02;;
46815;SDS011;32787;53.316;8.670;2023-05-10T01:46:27;14.35;;;9.85;;
46815;SDS011;32787;53.316;8.670;2023-05-10T01:48:59;14.25;;;9.77;;
46815;SDS011;32787;53.316;8.670;2023-05-10T01:51:27;13.73;;;9.73;;
46815;SDS011;32787;53.316;8.670;2023-05-10T01:54:01;14.38;;;10.18;;
46815;SDS011;32787;53.316;8.670;2023-05-10T01:56:29;13.70;;;10.02;;
46815;SDS011;32787;53.316;8.670;2023-05-10T01:58:56;12.02;;;8.52;;
46815;SDS011;32787;53.316;8.670;2023-05-10T02:01:23;13.38;;;8.60;;
46815;SDS011;32787;53.316;8.670;2023-05-10T02:03:51;12.88;;;7.53;;
46815;SDS011;32787;53.316;8.670;2023-05-10T02:06:18;11.27;;;7.07;;
46815;SDS011;32787;53.316;8.670;2023-05-10T02:08:46;15.20;;;7.47;;
46815;SDS011;32787;53.316;8.670;2023-05-10T02:11:14;10.80;;;7.13;;
46815;SDS011;32787;53.316;8.670;2023-05-10T02:13:40;9.88;;;6.82;;
46815;SDS011;32787;53.316;8.670;2023-05-10T02:16:07;12.65;;;7.20;;
46815;SDS011;32787;53.316;8.670;2023-05-10T02:18:33;11.38;;;6.22;;
46815;SDS011;32787;53.316;8.670;2023-05-10T02:21:01;12.30;;;6.25;;
46815;SDS011;32787;53.316;8.670;2023-05-10T02:23:28;12.52;;;6.57;;
46815;SDS011;32787;53.316;8.670;2023-05-10T02:25:54;9.02;;;5.60;;
46815;SDS011;32787;53.316;8.670;2023-05-10T02:28:23;12.55;;;5.80;;
46815;SDS011;32787;53.316;8.670;2023-05-10T02:30:50;10.63;;;6.18;;
46815;SDS011;32787;53.316;8.670;2023-05-10T02:33:17;9.45;;;5.68;;
46815;SDS011;32787;53.316;8.670;2023-05-10T02:35:44;10.60;;;5.53;;
46815;SDS011;32787;53.316;8.670;2023-05-10T02:38:11;13.30;;;5.78;;
46815;SDS011;32787;53.316;8.670;2023-05-10T02:40:38;8.90;;;5.65;;
46815;SDS011;32787;53.316;8.670;2023-05-10T02:43:06;11.57;;;5.28;;
46815;SDS011;32787;53.316;8.670;2023-05-10T02:45:37;8.20;;;4.80;;
46815;SDS011;32787;53.316;8.670;2023-05-10T02:48:04;9.23;;;5.45;;
46815;SDS011;32787;53.316;8.670;2023-05-10T02:50:30;12.18;;;5.03;;
46815;SDS011;32787;53.316;8.670;2023-05-10T02:53:06;10.82;;;5.18;;
46815;SDS011;32787;53.316;8.670;2023-05-10T02:55:40;11.00;;;5.15;;
46815;SDS011;32787;53.316;8.670;2023-05-10T02:58:07;8.45;;;4.72;;
46815;SDS011;32787;53.316;8.670;2023-05-10T03:00:32;7.95;;;4.70;;
46815;SDS011;32787;53.316;8.670;2023-05-10T03:02:58;10.02;;;4.60;;
46815;SDS011;32787;53.316;8.670;2023-05-10T03:05:24;8.85;;;4.75;;
46815;SDS011;32787;53.316;8.670;2023-05-10T03:07:50;10.23;;;5.20;;
46815;SDS011;32787;53.316;8.670;2023-05-10T03:10:17;8.60;;;4.30;;
46815;SDS011;32787;53.316;8.670;2023-05-10T03:15:30;7.75;;;4.35;;
46815;SDS011;32787;53.316;8.670;2023-05-10T03:20:35;8.83;;;4.80;;
46815;SDS011;32787;53.316;8.670;2023-05-10T03:25:52;8.75;;;4.90;;
46815;SDS011;32787;53.316;8.670;2023-05-10T03:28:18;9.98;;;5.10;;
46815;SDS011;32787;53.316;8.670;2023-05-10T03:30:46;10.02;;;5.00;;
46815;SDS011;32787;53.316;8.670;2023-05-10T03:33:12;10.50;;;5.28;;
46815;SDS011;32787;53.316;8.670;2023-05-10T03:35:38;11.23;;;5.38;;
46815;SDS011;32787;53.316;8.670;2023-05-10T03:38:04;10.90;;;5.50;;
46815;SDS011;32787;53.316;8.670;2023-05-10T03:40:29;9.65;;;5.90;;
46815;SDS011;32787;53.316;8.670;2023-05-10T03:42:57;9.23;;;4.82;;
46815;SDS011;32787;53.316;8.670;2023-05-10T03:45:23;10.17;;;5.20;;
46815;SDS011;32787;53.316;8.670;2023-05-10T03:47:48;8.80;;;5.10;;
46815;SDS011;32787;53.316;8.670;2023-05-10T03:50:14;9.95;;;5.55;;
46815;SDS011;32787;53.316;8.670;2023-05-10T03:52:40;8.43;;;5.38;;
46815;SDS011;32787;53.316;8.670;2023-05-10T03:55:06;10.73;;;5.97;;
46815;SDS011;32787;53.316;8.670;2023-05-10T03:57:32;8.43;;;5.80;;
46815;SDS011;32787;53.316;8.670;2023-05-10T03:59:58;9.13;;;5.23;;
46815;SDS011;32787;53.316;8.670;2023-05-10T04:02:24;8.40;;;5.10;;
46815;SDS011;32787;53.316;8.670;2023-05-10T04:04:50;9.00;;;5.53;;
46815;SDS011;32787;53.316;8.670;2023-05-10T04:07:16;9.70;;;5.40;;
46815;SDS011;32787;53.316;8.670;2023-05-10T04:09:41;12.10;;;5.80;;
46815;SDS011;32787;53.316;8.670;2023-05-10T04:12:07;8.70;;;5.37;;
46815;SDS011;32787;53.316;8.670;2023-05-10T04:14:33;10.85;;;6.00;;
46815;SDS011;32787;53.316;8.670;2023-05-10T04:16:58;8.50;;;5.00;;
46815;SDS011;32787;53.316;8.670;2023-05-10T04:19:24;8.90;;;5.32;;
46815;SDS011;32787;53.316;8.670;2023-05-10T04:21:54;9.05;;;5.50;;
46815;SDS011;32787;53.316;8.670;2023-05-10T04:24:20;8.90;;;5.20;;
46815;SDS011;32787;53.316;8.670;2023-05-10T04:26:45;9.87;;;5.60;;
46815;SDS011;32787;53.316;8.670;2023-05-10T04:29:11;10.40;;;5.33;;
46815;SDS011;32787;53.316;8.670;2023-05-10T04:31:36;8.50;;;5.50;;
46815;SDS011;32787;53.316;8.670;2023-05-10T04:36:27;9.10;;;5.50;;
46815;SDS011;32787;53.316;8.670;2023-05-10T04:41:19;10.25;;;5.35;;
46815;SDS011;32787;53.316;8.670;2023-05-10T04:43:45;10.50;;;5.30;;
46815;SDS011;32787;53.316;8.670;2023-05-10T04:46:13;9.00;;;5.30;;
46815;SDS011;32787;53.316;8.670;2023-05-10T04:48:39;8.85;;;5.20;;
46815;SDS011;32787;53.316;8.670;2023-05-10T04:51:05;10.60;;;5.73;;
46815;SDS011;32787;53.316;8.670;2023-05-10T04:53:31;8.40;;;4.90;;
46815;SDS011;32787;53.316;8.670;2023-05-10T04:55:57;9.65;;;5.70;;
46815;SDS011;32787;53.316;8.670;2023-05-10T04:58:22;10.00;;;5.40;;
46815;SDS011;32787;53.316;8.670;2023-05-10T05:00:48;9.77;;;6.00;;
46815;SDS011;32787;53.316;8.670;2023-05-10T05:03:14;11.15;;;6.65;;
46815;SDS011;32787;53.316;8.670;2023-05-10T05:05:39;14.43;;;6.63;;
46815;SDS011;32787;53.316;8.670;2023-05-10T05:08:05;12.45;;;5.90;;
46815;SDS011;32787;53.316;8.670;2023-05-10T05:10:31;9.95;;;5.40;;
46815;SDS011;32787;53.316;8.670;2023-05-10T05:12:56;11.10;;;6.35;;
46815;SDS011;32787;53.316;8.670;2023-05-10T05:15:22;12.50;;;6.70;;
46815;SDS011;32787;53.316;8.670;2023-05-10T05:17:48;20.30;;;6.90;;
46815;SDS011;32787;53.316;8.670;2023-05-10T05:20:14;10.00;;;6.43;;
46815;SDS011;32787;53.316;8.670;2023-05-10T05:22:39;10.93;;;7.00;;
46815;SDS011;32787;53.316;8.670;2023-05-10T05:25:05;13.33;;;7.30;;
46815;SDS011;32787;53.316;8.670;2023-05-10T05:27:31;10.60;;;7.72;;
46815;SDS011;32787;53.316;8.670;2023-05-10T05:29:57;14.68;;;7.00;;
46815;SDS011;32787;53.316;8.670;2023-05-10T05:32:23;13.47;;;7.17;;
46815;SDS011;32787;53.316;8.670;2023-05-10T05:34:49;16.02;;;7.82;;
46815;SDS011;32787;53.316;8.670;2023-05-10T05:37:15;12.38;;;7.57;;
46815;SDS011;32787;53.316;8.670;2023-05-10T05:39:43;11.48;;;7.90;;
46815;SDS011;32787;53.316;8.670;2023-05-10T05:42:09;14.57;;;7.57;;
46815;SDS011;32787;53.316;8.670;2023-05-10T05:44:36;12.63;;;7.78;;
46815;SDS011;32787;53.316;8.670;2023-05-10T05:47:01;14.68;;;7.78;;
46815;SDS011;32787;53.316;8.670;2023-05-10T05:49:27;12.07;;;7.65;;
46815;SDS011;32787;53.316;8.670;2023-05-10T05:51:53;11.57;;;7.95;;
46815;SDS011;32787;53.316;8.670;2023-05-10T05:54:19;13.03;;;8.10;;
46815;SDS011;32787;53.316;8.670;2023-05-10T05:56:45;13.75;;;8.02;;
46815;SDS011;32787;53.316;8.670;2023-05-10T05:59:11;13.43;;;8.33;;
46815;SDS011;32787;53.316;8.670;2023-05-10T06:01:36;13.15;;;8.70;;
46815;SDS011;32787;53.316;8.670;2023-05-10T06:04:02;14.60;;;8.20;;
46815;SDS011;32787;53.316;8.670;2023-05-10T06:06:28;15.13;;;8.38;;
46815;SDS011;32787;53.316;8.670;2023-05-10T06:08:53;12.85;;;8.95;;
46815;SDS011;32787;53.316;8.670;2023-05-10T06:11:19;12.00;;;7.82;;
46815;SDS011;32787;53.316;8.670;2023-05-10T06:13:46;15.02;;;9.27;;
46815;SDS011;32787;53.316;8.670;2023-05-10T06:16:12;12.73;;;7.55;;
46815;SDS011;32787;53.316;8.670;2023-05-10T06:18:38;11.70;;;7.88;;
46815;SDS011;32787;53.316;8.670;2023-05-10T06:21:04;12.57;;;8.32;;
46815;SDS011;32787;53.316;8.670;2023-05-10T06:23:30;12.68;;;8.80;;
46815;SDS011;32787;53.316;8.670;2023-05-10T06:25:55;11.80;;;8.10;;
46815;SDS011;32787;53.316;8.670;2023-05-10T06:28:21;14.68;;;8.30;;
46815;SDS011;32787;53.316;8.670;2023-05-10T06:30:46;13.63;;;8.88;;
46815;SDS011;32787;53.316;8.670;2023-05-10T06:33:12;18.27;;;9.43;;
46815;SDS011;32787;53.316;8.670;2023-05-10T06:35:38;13.57;;;8.47;;
46815;SDS011;32787;53.316;8.670;2023-05-10T06:38:04;14.45;;;8.80;;
46815;SDS011;32787;53.316;8.670;2023-05-10T06:40:29;12.95;;;8.35;;
46815;SDS011;32787;53.316;8.670;2023-05-10T06:42:55;13.57;;;9.07;;
46815;SDS011;32787;53.316;8.670;2023-05-10T06:45:20;14.00;;;8.80;;
46815;SDS011;32787;53.316;8.670;2023-05-10T06:47:46;13.50;;;8.90;;
46815;SDS011;32787;53.316;8.670;2023-05-10T06:50:12;14.30;;;9.55;;
46815;SDS011;32787;53.316;8.670;2023-05-10T06:52:38;14.40;;;9.20;;
46815;SDS011;32787;53.316;8.670;2023-05-10T06:55:04;18.00;;;9.20;;
46815;SDS011;32787;53.316;8.670;2023-05-10T06:57:31;14.23;;;9.80;;
46815;SDS011;32787;53.316;8.670;2023-05-10T06:59:57;13.20;;;9.10;;
46815;SDS011;32787;53.316;8.670;2023-05-10T07:02:23;14.95;;;9.45;;
46815;SDS011;32787;53.316;8.670;2023-05-10T07:04:49;15.13;;;9.50;;
46815;SDS011;32787;53.316;8.670;2023-05-10T07:07:16;16.42;;;9.23;;
46815;SDS011;32787;53.316;8.670;2023-05-10T07:09:42;15.73;;;10.20;;
46815;SDS011;32787;53.316;8.670;2023-05-10T07:12:07;18.33;;;10.23;;
46815;SDS011;32787;53.316;8.670;2023-05-10T07:14:33;14.88;;;9.63;;
46815;SDS011;32787;53.316;8.670;2023-05-10T07:16:59;19.03;;;10.53;;
46815;SDS011;32787;53.316;8.670;2023-05-10T07:19:24;15.60;;;10.95;;
46815;SDS011;32787;53.316;8.670;2023-05-10T07:21:50;16.63;;;11.52;;
46815;SDS011;32787;53.316;8.670;2023-05-10T07:24:15;16.60;;;11.52;;
46815;SDS011;32787;53.316;8.670;2023-05-10T07:26:41;16.73;;;11.02;;
46815;SDS011;32787;53.316;8.670;2023-05-10T07:29:07;15.00;;;10.43;;
46815;SDS011;32787;53.316;8.670;2023-05-10T07:31:32;15.60;;;11.30;;
46815;SDS011;32787;53.316;8.670;2023-05-10T07:33:58;15.85;;;9.93;;
46815;SDS011;32787;53.316;8.670;2023-05-10T07:36:23;16.67;;;11.55;;
46815;SDS011;32787;53.316;8.670;2023-05-10T07:38:49;19.63;;;11.68;;
46815;SDS011;32787;53.316;8.670;2023-05-10T07:41:15;17.02;;;11.43;;
46815;SDS011;32787;53.316;8.670;2023-05-10T07:43:40;16.83;;;11.98;;
46815;SDS011;32787;53.316;8.670;2023-05-10T07:46:06;16.15;;;11.10;;
46815;SDS011;32787;53.316;8.670;2023-05-10T07:48:32;15.63;;;11.13;;
46815;SDS011;32787;53.316;8.670;2023-05-10T07:50:58;16.17;;;11.20;;
46815;SDS011;32787;53.316;8.670;2023-05-10T07:53:23;15.65;;;10.38;;
46815;SDS011;32787;53.316;8.670;2023-05-10T07:55:51;14.73;;;10.43;;
46815;SDS011;32787;53.316;8.670;2023-05-10T07:58:21;15.88;;;9.98;;
46815;SDS011;32787;53.316;8.670;2023-05-10T08:00:47;15.73;;;10.70;;
46815;SDS011;32787;53.316;8.670;2023-05-10T08:03:14;14.35;;;9.90;;
46815;SDS011;32787;53.316;8.670;2023-05-10T08:05:39;13.32;;;8.40;;
46815;SDS011;32787;53.316;8.670;2023-05-10T08:08:05;12.77;;;8.25;;
46815;SDS011;32787;53.316;8.670;2023-05-10T08:10:31;10.65;;;6.50;;
46815;SDS011;32787;53.316;8.670;2023-05-10T08:12:57;10.73;;;6.32;;
46815;SDS011;32787;53.316;8.670;2023-05-10T08:15:23;11.75;;;6.30;;
46815;SDS011;32787;53.316;8.670;2023-05-10T08:17:50;11.32;;;6.57;;
46815;SDS011;32787;53.316;8.670;2023-05-10T08:20:18;10.80;;;6.50;;
46815;SDS011;32787;53.316;8.670;2023-05-10T08:22:47;11.68;;;6.93;;
46815;SDS011;32787;53.316;8.670;2023-05-10T08:25:12;11.90;;;6.03;;
46815;SDS011;32787;53.316;8.670;2023-05-10T08:27:38;11.13;;;6.97;;
46815;SDS011;32787;53.316;8.670;2023-05-10T08:30:04;11.35;;;6.97;;
46815;SDS011;32787;53.316;8.670;2023-05-10T08:32:30;11.82;;;7.03;;
46815;SDS011;32787;53.316;8.670;2023-05-10T08:34:56;12.25;;;7.47;;
46815;SDS011;32787;53.316;8.670;2023-05-10T08:37:23;12.18;;;7.50;;
46815;SDS011;32787;53.316;8.670;2023-05-10T08:39:48;12.15;;;7.22;;
46815;SDS011;32787;53.316;8.670;2023-05-10T08:42:15;10.93;;;6.88;;
46815;SDS011;32787;53.316;8.670;2023-05-10T08:44:45;14.70;;;8.05;;
46815;SDS011;32787;53.316;8.670;2023-05-10T08:47:13;11.27;;;6.57;;
46815;SDS011;32787;53.316;8.670;2023-05-10T08:49:41;10.75;;;7.10;;
46815;SDS011;32787;53.316;8.670;2023-05-10T08:52:08;10.27;;;6.97;;
46815;SDS011;32787;53.316;8.670;2023-05-10T08:54:36;9.68;;;6.55;;
46815;SDS011;32787;53.316;8.670;2023-05-10T08:57:02;10.38;;;6.50;;
46815;SDS011;32787;53.316;8.670;2023-05-10T08:59:29;12.32;;;6.45;;
46815;SDS011;32787;53.316;8.670;2023-05-10T09:01:56;10.88;;;6.97;;
46815;SDS011;32787;53.316;8.670;2023-05-10T09:04:23;12.48;;;7.20;;
46815;SDS011;32787;53.316;8.670;2023-05-10T09:06:49;10.88;;;6.90;;
46815;SDS011;32787;53.316;8.670;2023-05-10T09:09:15;10.63;;;7.07;;
46815;SDS011;32787;53.316;8.670;2023-05-10T09:11:43;10.50;;;6.45;;
46815;SDS011;32787;53.316;8.670;2023-05-10T09:14:09;9.55;;;5.90;;
46815;SDS011;32787;53.316;8.670;2023-05-10T09:16:37;9.23;;;5.85;;
46815;SDS011;32787;53.316;8.670;2023-05-10T09:19:03;12.75;;;5.90;;
46815;SDS011;32787;53.316;8.670;2023-05-10T09:21:28;9.57;;;4.97;;
46815;SDS011;32787;53.316;8.670;2023-05-10T09:23:56;10.90;;;5.15;;
46815;SDS011;32787;53.316;8.670;2023-05-10T09:26:22;7.72;;;4.53;;
46815;SDS011;32787;53.316;8.670;2023-05-10T09:28:55;9.80;;;4.25;;
46815;SDS011;32787;53.316;8.670;2023-05-10T09:31:22;9.32;;;4.10;;
46815;SDS011;32787;53.316;8.670;2023-05-10T09:33:48;7.40;;;3.70;;
46815;SDS011;32787;53.316;8.670;2023-05-10T09:36:15;7.63;;;3.55;;
46815;SDS011;32787;53.316;8.670;2023-05-10T09:38:51;7.13;;;3.25;;
46815;SDS011;32787;53.316;8.670;2023-05-10T09:41:21;7.68;;;3.38;;
46815;SDS011;32787;53.316;8.670;2023-05-10T09:43:47;8.90;;;3.67;;
46815;SDS011;32787;53.316;8.670;2023-05-10T09:46:17;7.85;;;3.67;;
46815;SDS011;32787;53.316;8.670;2023-05-10T09:48:43;7.28;;;3.85;;
46815;SDS011;32787;53.316;8.670;2023-05-10T09:51:10;6.32;;;3.65;;
46815;SDS011;32787;53.316;8.670;2023-05-10T09:53:43;8.10;;;3.40;;
46815;SDS011;32787;53.316;8.670;2023-05-10T09:56:09;7.65;;;3.53;;
46815;SDS011;32787;53.316;8.670;2023-05-10T09:58:36;6.93;;;4.13;;
46815;SDS011;32787;53.316;8.670;2023-05-10T10:01:03;6.38;;;3.05;;
46815;SDS011;32787;53.316;8.670;2023-05-10T10:03:29;6.10;;;3.13;;
46815;SDS011;32787;53.316;8.670;2023-05-10T10:05:55;5.90;;;2.95;;
46815;SDS011;32787;53.316;8.670;2023-05-10T10:08:21;8.00;;;3.70;;
46815;SDS011;32787;53.316;8.670;2023-05-10T10:10:47;5.13;;;3.08;;
46815;SDS011;32787;53.316;8.670;2023-05-10T10:13:13;10.57;;;3.50;;
46815;SDS011;32787;53.316;8.670;2023-05-10T10:15:38;8.00;;;3.55;;
46815;SDS011;32787;53.316;8.670;2023-05-10T10:18:04;6.05;;;3.00;;
46815;SDS011;32787;53.316;8.670;2023-05-10T10:20:30;7.38;;;2.88;;
46815;SDS011;32787;53.316;8.670;2023-05-10T10:22:56;6.38;;;2.60;;
46815;SDS011;32787;53.316;8.670;2023-05-10T10:25:22;5.70;;;2.42;;
46815;SDS011;32787;53.316;8.670;2023-05-10T10:30:21;8.55;;;2.60;;
46815;SDS011;32787;53.316;8.670;2023-05-10T10:35:52;6.32;;;2.95;;
46815;SDS011;32787;53.316;8.670;2023-05-10T10:38:19;6.28;;;2.88;;
46815;SDS011;32787;53.316;8.670;2023-05-10T10:40:46;5.25;;;2.65;;
46815;SDS011;32787;53.316;8.670;2023-05-10T10:43:22;5.80;;;2.60;;
46815;SDS011;32787;53.316;8.670;2023-05-10T10:48:37;6.28;;;3.33;;
46815;SDS011;32787;53.316;8.670;2023-05-10T10:51:03;6.50;;;3.40;;
46815;SDS011;32787;53.316;8.670;2023-05-10T10:53:29;6.78;;;3.15;;
46815;SDS011;32787;53.316;8.670;2023-05-10T10:56:05;4.55;;;2.13;;
46815;SDS011;32787;53.316;8.670;2023-05-10T10:58:35;5.47;;;2.15;;
46815;SDS011;32787;53.316;8.670;2023-05-10T11:01:12;5.63;;;2.30;;
46815;SDS011;32787;53.316;8.670;2023-05-10T11:03:40;5.45;;;2.53;;
46815;SDS011;32787;53.316;8.670;2023-05-10T11:06:28;6.45;;;3.15;;
46815;SDS011;32787;53.316;8.670;2023-05-10T11:08:58;4.63;;;2.40;;
46815;SDS011;32787;53.316;8.670;2023-05-10T11:11:34;7.03;;;3.15;;
46815;SDS011;32787;53.316;8.670;2023-05-10T11:14:06;5.57;;;2.38;;
46815;SDS011;32787;53.316;8.670;2023-05-10T11:16:42;4.95;;;2.45;;
46815;SDS011;32787;53.316;8.670;2023-05-10T11:19:10;4.55;;;1.92;;
46815;SDS011;32787;53.316;8.670;2023-05-10T11:21:46;4.07;;;1.50;;
46815;SDS011;32787;53.316;8.670;2023-05-10T11:24:15;3.53;;;1.58;;
46815;SDS011;32787;53.316;8.670;2023-05-10T11:26:43;7.73;;;2.43;;
46815;SDS011;32787;53.316;8.670;2023-05-10T11:29:09;6.68;;;2.35;;
46815;SDS011;32787;53.316;8.670;2023-05-10T11:31:35;5.43;;;2.10;;
46815;SDS011;32787;53.316;8.670;2023-05-10T11:34:06;3.78;;;1.60;;
46815;SDS011;32787;53.316;8.670;2023-05-10T11:36:33;11.77;;;2.95;;
46815;SDS011;32787;53.316;8.670;2023-05-10T11:38:59;5.53;;;2.42;;
46815;SDS011;32787;53.316;8.670;2023-05-10T11:41:25;4.55;;;2.22;;
46815;SDS011;32787;53.316;8.670;2023-05-10T11:43:53;5.45;;;2.55;;
46815;SDS011;32787;53.316;8.670;2023-05-10T11:46:20;4.25;;;2.17;;
46815;SDS011;32787;53.316;8.670;2023-05-10T11:48:49;3.75;;;1.98;;
46815;SDS011;32787;53.316;8.670;2023-05-10T11:51:19;4.15;;;1.77;;
46815;SDS011;32787;53.316;8.670;2023-05-10T11:56:11;3.95;;;1.65;;
46815;SDS011;32787;53.316;8.670;2023-05-10T11:58:37;3.08;;;1.48;;
46815;SDS011;32787;53.316;8.670;2023-05-10T12:01:04;3.40;;;1.38;;
46815;SDS011;32787;53.316;8.670;2023-05-10T12:03:31;2.80;;;0.80;;
46815;SDS011;32787;53.316;8.670;2023-05-10T12:05:57;1.73;;;0.80;;
46815;SDS011;32787;53.316;8.670;2023-05-10T12:08:28;1.55;;;0.50;;
46815;SDS011;32787;53.316;8.670;2023-05-10T12:11:03;2.45;;;0.50;;
46815;SDS011;32787;53.316;8.670;2023-05-10T12:13:40;1.00;;;0.60;;
46815;SDS011;32787;53.316;8.670;2023-05-10T12:16:19;0.98;;;0.70;;
46815;SDS011;32787;53.316;8.670;2023-05-10T12:18:50;1.88;;;0.82;;
46815;SDS011;32787;53.316;8.670;2023-05-10T12:21:16;2.47;;;0.90;;
46815;SDS011;32787;53.316;8.670;2023-05-10T12:23:45;2.40;;;0.90;;
46815;SDS011;32787;53.316;8.670;2023-05-10T12:26:12;2.08;;;1.10;;
46815;SDS011;32787;53.316;8.670;2023-05-10T12:28:38;2.53;;;1.20;;
46815;SDS011;32787;53.316;8.670;2023-05-10T12:31:06;3.50;;;1.20;;
46815;SDS011;32787;53.316;8.670;2023-05-10T12:33:39;2.95;;;1.30;;
46815;SDS011;32787;53.316;8.670;2023-05-10T12:36:09;2.67;;;1.30;;
46815;SDS011;32787;53.316;8.670;2023-05-10T12:38:37;4.15;;;1.20;;
46815;SDS011;32787;53.316;8.670;2023-05-10T12:41:08;3.30;;;1.52;;
46815;SDS011;32787;53.316;8.670;2023-05-10T12:43:35;2.35;;;1.13;;
46815;SDS011;32787;53.316;8.670;2023-05-10T12:46:07;2.25;;;1.20;;
46815;SDS011;32787;53.316;8.670;2023-05-10T12:48:35;2.95;;;1.58;;
46815;SDS011;32787;53.316;8.670;2023-05-10T12:51:02;4.70;;;1.75;;
46815;SDS011;32787;53.316;8.670;2023-05-10T12:53:28;4.28;;;2.28;;
46815;SDS011;32787;53.316;8.670;2023-05-10T12:55:54;5.90;;;2.25;;
46815;SDS011;32787;53.316;8.670;2023-05-10T12:58:20;4.57;;;2.83;;
46815;SDS011;32787;53.316;8.670;2023-05-10T13:00:46;5.18;;;2.47;;
46815;SDS011;32787;53.316;8.670;2023-05-10T13:03:12;3.85;;;2.00;;
46815;SDS011;32787;53.316;8.670;2023-05-10T13:05:37;4.25;;;1.70;;
46815;SDS011;32787;53.316;8.670;2023-05-10T13:08:03;3.90;;;1.90;;
46815;SDS011;32787;53.316;8.670;2023-05-10T13:10:29;3.70;;;1.90;;
46815;SDS011;32787;53.316;8.670;2023-05-10T13:12:56;5.15;;;1.90;;
46815;SDS011;32787;53.316;8.670;2023-05-10T13:15:22;4.18;;;2.22;;
46815;SDS011;32787;53.316;8.670;2023-05-10T13:17:48;3.75;;;1.58;;
46815;SDS011;32787;53.316;8.670;2023-05-10T13:20:13;5.32;;;1.90;;
46815;SDS011;32787;53.316;8.670;2023-05-10T13:22:39;3.80;;;1.90;;
46815;SDS011;32787;53.316;8.670;2023-05-10T13:25:06;2.42;;;1.23;;
46815;SDS011;32787;53.316;8.670;2023-05-10T13:27:32;2.70;;;1.33;;
46815;SDS011;32787;53.316;8.670;2023-05-10T13:29:57;10.60;;;1.70;;
46815;SDS011;32787;53.316;8.670;2023-05-10T13:32:24;2.63;;;1.25;;
46815;SDS011;32787;53.316;8.670;2023-05-10T13:34:50;3.40;;;1.33;;
46815;SDS011;32787;53.316;8.670;2023-05-10T13:37:16;3.17;;;1.20;;
46815;SDS011;32787;53.316;8.670;2023-05-10T13:39:42;3.05;;;1.50;;
46815;SDS011;32787;53.316;8.670;2023-05-10T13:42:07;4.35;;;1.75;;
46815;SDS011;32787;53.316;8.670;2023-05-10T13:44:33;6.18;;;3.22;;
46815;SDS011;32787;53.316;8.670;2023-05-10T13:46:59;7.03;;;3.63;;
46815;SDS011;32787;53.316;8.670;2023-05-10T13:49:24;6.20;;;3.10;;
46815;SDS011;32787;53.316;8.670;2023-05-10T13:51:50;8.20;;;3.28;;
46815;SDS011;32787;53.316;8.670;2023-05-10T13:54:16;6.93;;;3.63;;
46815;SDS011;32787;53.316;8.670;2023-05-10T13:56:44;8.02;;;4.18;;
46815;SDS011;32787;53.316;8.670;2023-05-10T13:59:12;6.82;;;3.53;;
46815;SDS011;32787;53.316;8.670;2023-05-10T14:01:39;9.00;;;3.60;;
46815;SDS011;32787;53.316;8.670;2023-05-10T14:04:05;8.20;;;4.25;;
46815;SDS011;32787;53.316;8.670;2023-05-10T14:06:35;7.35;;;3.85;;
46815;SDS011;32787;53.316;8.670;2023-05-10T14:09:01;8.45;;;4.10;;
46815;SDS011;32787;53.316;8.670;2023-05-10T14:11:27;8.60;;;4.70;;
46815;SDS011;32787;53.316;8.670;2023-05-10T14:13:52;7.00;;;3.88;;
46815;SDS011;32787;53.316;8.670;2023-05-10T14:16:18;6.57;;;2.45;;
46815;SDS011;32787;53.316;8.670;2023-05-10T14:18:45;3.85;;;1.40;;
46815;SDS011;32787;53.316;8.670;2023-05-10T14:21:11;4.32;;;1.98;;
46815;SDS011;32787;53.316;8.670;2023-05-10T14:23:37;4.63;;;1.55;;
46815;SDS011;32787;53.316;8.670;2023-05-10T14:26:02;4.00;;;1.75;;
46815;SDS011;32787;53.316;8.670;2023-05-10T14:28:28;4.18;;;1.83;;
46815;SDS011;32787;53.316;8.670;2023-05-10T14:30:54;9.57;;;2.10;;
46815;SDS011;32787;53.316;8.670;2023-05-10T14:33:19;6.22;;;2.30;;
46815;SDS011;32787;53.316;8.670;2023-05-10T14:35:46;4.50;;;2.50;;
46815;SDS011;32787;53.316;8.670;2023-05-10T14:38:11;5.25;;;2.58;;
46815;SDS011;32787;53.316;8.670;2023-05-10T14:40:38;6.28;;;2.70;;
46815;SDS011;32787;53.316;8.670;2023-05-10T14:43:03;6.72;;;3.10;;
46815;SDS011;32787;53.316;8.670;2023-05-10T14:45:29;5.22;;;2.50;;
46815;SDS011;32787;53.316;8.670;2023-05-10T14:47:55;5.38;;;2.13;;
46815;SDS011;32787;53.316;8.670;2023-05-10T14:50:22;5.18;;;2.78;;
46815;SDS011;32787;53.316;8.670;2023-05-10T14:52:48;5.45;;;3.00;;
46815;SDS011;32787;53.316;8.670;2023-05-10T14:55:14;5.78;;;3.42;;
46815;SDS011;32787;53.316;8.670;2023-05-10T14:57:40;6.40;;;3.90;;
46815;SDS011;32787;53.316;8.670;2023-05-10T15:00:06;5.93;;;3.50;;
46815;SDS011;32787;53.316;8.670;2023-05-10T15:02:32;6.93;;;3.85;;
46815;SDS011;32787;53.316;8.670;2023-05-10T15:04:57;6.90;;;4.00;;
46815;SDS011;32787;53.316;8.670;2023-05-10T15:07:23;7.22;;;3.92;;
46815;SDS011;32787;53.316;8.670;2023-05-10T15:09:51;7.13;;;3.63;;
46815;SDS011;32787;53.316;8.670;2023-05-10T15:12:17;6.35;;;3.63;;
46815;SDS011;32787;53.316;8.670;2023-05-10T15:14:43;7.70;;;4.38;;
46815;SDS011;32787;53.316;8.670;2023-05-10T15:17:09;7.25;;;4.20;;